METAR Formatted Surface Weather Observation
Issued by NWS

Home | Current Version | Previous Version | Text Only | Print | Product List | Glossary On
Versions: 1
SAUS45 KSLC 241620
METAR KU16 241558Z AUTO 05004KT 10SM CLR 03/M06 A2984
RMK AO2 SLP737 T00281061 $ is the U.S. government's official web portal to all federal, state and local government web resources and services.